YSSYYPMQ

Guest
Details From YSSY - Sydney Intl
To YPMQ - Port Macquarie
Flight Number -
Tags generated
Created
Modified
Stats Distance 174 nm / 322 km
Max Altitude 19,900 ft / 6,066 m
Waypoints 3
Social Downloads 2
Likes 0
Share VATSIM

Download

Looking for another format? Having issues loading an existing format? Contact us
Advertisement - Login to hide

Notes

Basic altitude profile: - Ascent Rate: 2500ft/min - Ascent Speed: 250kts - Cruise Altitude: 35000ft - Cruise Speed: 420kts - Descent Rate: 1500ft/min - Descent Speed: 250kts Options: - Use NATs: no - Use PACOTS: no - Use low airways: no - Use high airways: yes

Route

YSSY WLM YPMQ

ID Type Via Altitude Latitude Longitude Leg Dist Tot Dist Heading (true) Name
O YSSY APT - 0 ft / 0 m -33.94927˚ 151.18135˚ - 0 nm - Sydney Intl
WLM NDB - 19,900 ft / 6,066 m -32.80335˚ 151.82878˚ 76 nm 76 nm 25° / 25° WILLIAMTOWN NDB
O YPMQ APT - 0 ft / 0 m -31.43449˚ 152.86585˚ 97 nm 173 nm 33° / 32° Port Macquarie

Altitude Profile

Advertisement - Login to hide

Weather


0- 5 10 15 20 25 30 35+ Temperature / ° C

Clouds and Precipitation
Forecast for 2018-05-24 18:00 UTC. Updated 4 hours ago

Ground ~20,000 ft ~40,000 ft Winds

YSSY

Details ICAO YSSY (SYD)
Name Sydney Intl
Region Australia
Timezone Australia/Sydney (UTC+10.0)
Stats Elevation 21 ft / 6 m (AMSL)
Location -33.949273° 151.181347°
Runways 3
Magnetic Variation 12.604° E

METAR

YSSY 242130Z 17013KT 9999 FEW025 SCT045 BKN057 17/11 Q1028

Decode

TAF

TAF YSSY 241715Z 2418/2524 21008KT 9999 FEW020 BKN040 FM250000 16012KT 9999 SCT040 FM251000 22008KT 9999 FEW035 FM251600 29008KT 9999 FEW030

Decode

Departure Runways

ID Width Length Bearing (true) Bearing (mag) Surface Threshold Offset Overrun Length
07 148 ft / 45 m 8,285 ft / 2,525 m 74.13° 61.53° Asphalt 0 ft / 0 m 0 ft / 0 m
16L 148 ft / 45 m 8,018 ft / 2,444 m 167.81° 155.21° Asphalt 758 ft / 231 m 0 ft / 0 m
16R 148 ft / 45 m 13,033 ft / 3,973 m 167.86° 155.26° Asphalt 279 ft / 85 m 0 ft / 0 m
25 148 ft / 45 m 8,285 ft / 2,525 m 254.12° 241.52° Asphalt 324 ft / 99 m 0 ft / 0 m
34L 148 ft / 45 m 13,033 ft / 3,973 m 347.85° 335.25° Asphalt 0 ft / 0 m 0 ft / 0 m
34R 148 ft / 45 m 8,018 ft / 2,444 m 347.81° 335.21° Asphalt 125 ft / 38 m 0 ft / 0 m

YPMQ

Details ICAO YPMQ (PQQ)
Name Port Macquarie
Region Australia
Timezone Australia/Sydney (UTC+10.0)
Stats Elevation 12 ft / 4 m (AMSL)
Location -31.434488° 152.865850°
Runways 2
Magnetic Variation 12.229° E

METAR

YPMQ 242135Z AUTO 27005KT 5000 // SCT032 SCT038 OVC045 14/14 Q1026

Decode

TAF

Not found

Destination Runways

ID Width Length Bearing (true) Bearing (mag) Surface Threshold Offset Overrun Length
03 98 ft / 30 m 5,220 ft / 1,591 m 29.60° 17.37° Asphalt 0 ft / 0 m 0 ft / 0 m
10 203 ft / 62 m 2,496 ft / 761 m 114.30° 102.07° Grass 0 ft / 0 m 0 ft / 0 m
21 98 ft / 30 m 5,220 ft / 1,591 m 209.60° 197.37° Asphalt 0 ft / 0 m 0 ft / 0 m
28 203 ft / 62 m 2,496 ft / 761 m 294.29° 282.06° Grass 0 ft / 0 m 0 ft / 0 m

Popular Alternatives